sensor_id;sensor_type;location;lat;lon;timestamp;P1;durP1;ratioP1;P2;durP2;ratioP2
43337;SDS011;28933;52.492;13.434;2023-02-18T00:01:53;16.30;;;4.45;;
43337;SDS011;28933;52.492;13.434;2023-02-18T00:04:39;9.73;;;3.63;;
43337;SDS011;28933;52.492;13.434;2023-02-18T00:07:25;9.25;;;2.83;;
43337;SDS011;28933;52.492;13.434;2023-02-18T00:10:15;9.70;;;3.88;;
43337;SDS011;28933;52.492;13.434;2023-02-18T00:13:01;14.45;;;4.38;;
43337;SDS011;28933;52.492;13.434;2023-02-18T00:15:47;9.50;;;3.80;;
43337;SDS011;28933;52.492;13.434;2023-02-18T00:18:33;5.82;;;2.92;;
43337;SDS011;28933;52.492;13.434;2023-02-18T00:21:19;11.95;;;3.50;;
43337;SDS011;28933;52.492;13.434;2023-02-18T00:24:05;11.60;;;3.08;;
43337;SDS011;28933;52.492;13.434;2023-02-18T00:26:52;9.65;;;3.33;;
43337;SDS011;28933;52.492;13.434;2023-02-18T00:29:38;8.02;;;2.63;;
43337;SDS011;28933;52.492;13.434;2023-02-18T00:32:24;16.35;;;3.40;;
43337;SDS011;28933;52.492;13.434;2023-02-18T00:35:10;12.07;;;4.03;;
43337;SDS011;28933;52.492;13.434;2023-02-18T00:37:56;10.88;;;3.30;;
43337;SDS011;28933;52.492;13.434;2023-02-18T00:40:41;12.10;;;3.78;;
43337;SDS011;28933;52.492;13.434;2023-02-18T00:43:28;9.93;;;3.13;;
43337;SDS011;28933;52.492;13.434;2023-02-18T00:46:14;9.57;;;3.08;;
43337;SDS011;28933;52.492;13.434;2023-02-18T00:49:00;8.30;;;2.88;;
43337;SDS011;28933;52.492;13.434;2023-02-18T00:51:47;14.07;;;3.50;;
43337;SDS011;28933;52.492;13.434;2023-02-18T00:54:33;14.10;;;3.53;;
43337;SDS011;28933;52.492;13.434;2023-02-18T00:57:28;8.80;;;3.50;;
43337;SDS011;28933;52.492;13.434;2023-02-18T01:00:14;10.90;;;2.92;;
43337;SDS011;28933;52.492;13.434;2023-02-18T01:03:00;16.40;;;4.13;;
43337;SDS011;28933;52.492;13.434;2023-02-18T01:05:47;13.88;;;4.00;;
43337;SDS011;28933;52.492;13.434;2023-02-18T01:08:34;11.02;;;3.85;;
43337;SDS011;28933;52.492;13.434;2023-02-18T01:11:21;11.48;;;3.72;;
43337;SDS011;28933;52.492;13.434;2023-02-18T01:14:07;13.20;;;3.58;;
43337;SDS011;28933;52.492;13.434;2023-02-18T01:16:53;8.85;;;3.17;;
43337;SDS011;28933;52.492;13.434;2023-02-18T01:19:39;11.93;;;2.92;;
43337;SDS011;28933;52.492;13.434;2023-02-18T01:22:25;14.15;;;2.78;;
43337;SDS011;28933;52.492;13.434;2023-02-18T01:25:11;11.88;;;3.63;;
43337;SDS011;28933;52.492;13.434;2023-02-18T01:27:58;13.05;;;3.80;;
43337;SDS011;28933;52.492;13.434;2023-02-18T01:30:43;10.38;;;2.88;;
43337;SDS011;28933;52.492;13.434;2023-02-18T01:33:29;11.13;;;3.15;;
43337;SDS011;28933;52.492;13.434;2023-02-18T01:36:15;6.85;;;2.75;;
43337;SDS011;28933;52.492;13.434;2023-02-18T01:39:02;13.32;;;3.13;;
43337;SDS011;28933;52.492;13.434;2023-02-18T01:41:50;12.73;;;3.25;;
43337;SDS011;28933;52.492;13.434;2023-02-18T01:44:35;8.10;;;2.72;;
43337;SDS011;28933;52.492;13.434;2023-02-18T01:47:21;10.25;;;3.40;;
43337;SDS011;28933;52.492;13.434;2023-02-18T01:50:07;12.80;;;3.28;;
43337;SDS011;28933;52.492;13.434;2023-02-18T01:52:53;12.27;;;3.55;;
43337;SDS011;28933;52.492;13.434;2023-02-18T01:55:39;12.48;;;3.00;;
43337;SDS011;28933;52.492;13.434;2023-02-18T01:58:26;8.32;;;3.72;;
43337;SDS011;28933;52.492;13.434;2023-02-18T02:01:12;10.02;;;2.72;;
43337;SDS011;28933;52.492;13.434;2023-02-18T02:03:58;10.65;;;3.15;;
43337;SDS011;28933;52.492;13.434;2023-02-18T02:06:44;11.52;;;2.85;;
43337;SDS011;28933;52.492;13.434;2023-02-18T02:09:30;14.07;;;3.60;;
43337;SDS011;28933;52.492;13.434;2023-02-18T02:15:14;10.25;;;3.03;;
43337;SDS011;28933;52.492;13.434;2023-02-18T02:27:18;12.63;;;3.50;;
43337;SDS011;28933;52.492;13.434;2023-02-18T02:36:30;10.73;;;3.05;;
43337;SDS011;28933;52.492;13.434;2023-02-18T02:40:11;8.98;;;3.25;;
43337;SDS011;28933;52.492;13.434;2023-02-18T02:46:11;9.70;;;2.80;;
43337;SDS011;28933;52.492;13.434;2023-02-18T02:50:04;7.28;;;2.70;;
43337;SDS011;28933;52.492;13.434;2023-02-18T02:52:32;11.38;;;4.03;;
43337;SDS011;28933;52.492;13.434;2023-02-18T02:55:24;12.57;;;3.28;;
43337;SDS011;28933;52.492;13.434;2023-02-18T02:58:13;11.30;;;2.50;;
43337;SDS011;28933;52.492;13.434;2023-02-18T03:10:38;9.50;;;2.97;;
43337;SDS011;28933;52.492;13.434;2023-02-18T03:22:20;6.68;;;2.35;;
43337;SDS011;28933;52.492;13.434;2023-02-18T03:25:11;6.68;;;2.33;;
43337;SDS011;28933;52.492;13.434;2023-02-18T03:28:00;10.00;;;3.30;;
43337;SDS011;28933;52.492;13.434;2023-02-18T03:30:50;4.82;;;2.47;;
43337;SDS011;28933;52.492;13.434;2023-02-18T03:33:42;7.55;;;3.03;;
43337;SDS011;28933;52.492;13.434;2023-02-18T03:36:35;15.73;;;3.60;;
43337;SDS011;28933;52.492;13.434;2023-02-18T03:39:22;10.05;;;2.45;;
43337;SDS011;28933;52.492;13.434;2023-02-18T03:42:11;12.45;;;3.65;;
43337;SDS011;28933;52.492;13.434;2023-02-18T03:44:57;8.38;;;2.63;;
43337;SDS011;28933;52.492;13.434;2023-02-18T03:47:44;8.90;;;2.30;;
43337;SDS011;28933;52.492;13.434;2023-02-18T03:50:30;9.15;;;2.83;;
43337;SDS011;28933;52.492;13.434;2023-02-18T03:53:16;6.47;;;3.17;;
43337;SDS011;28933;52.492;13.434;2023-02-18T03:56:02;11.15;;;2.92;;
43337;SDS011;28933;52.492;13.434;2023-02-18T03:58:48;11.88;;;2.60;;
43337;SDS011;28933;52.492;13.434;2023-02-18T04:01:34;13.52;;;3.63;;
43337;SDS011;28933;52.492;13.434;2023-02-18T04:04:20;13.20;;;2.38;;
43337;SDS011;28933;52.492;13.434;2023-02-18T04:07:06;7.32;;;2.45;;
43337;SDS011;28933;52.492;13.434;2023-02-18T04:09:52;6.60;;;2.45;;
43337;SDS011;28933;52.492;13.434;2023-02-18T04:12:38;10.00;;;2.55;;
43337;SDS011;28933;52.492;13.434;2023-02-18T04:15:24;7.10;;;2.65;;
43337;SDS011;28933;52.492;13.434;2023-02-18T04:18:10;6.30;;;2.10;;
43337;SDS011;28933;52.492;13.434;2023-02-18T04:20:56;10.07;;;2.13;;
43337;SDS011;28933;52.492;13.434;2023-02-18T04:23:42;8.38;;;2.58;;
43337;SDS011;28933;52.492;13.434;2023-02-18T04:26:28;11.10;;;2.30;;
43337;SDS011;28933;52.492;13.434;2023-02-18T04:29:14;9.68;;;2.55;;
43337;SDS011;28933;52.492;13.434;2023-02-18T04:32:00;7.05;;;3.30;;
43337;SDS011;28933;52.492;13.434;2023-02-18T04:34:46;7.72;;;2.35;;
43337;SDS011;28933;52.492;13.434;2023-02-18T04:37:32;8.68;;;2.65;;
43337;SDS011;28933;52.492;13.434;2023-02-18T04:40:18;7.20;;;1.90;;
43337;SDS011;28933;52.492;13.434;2023-02-18T04:43:04;6.03;;;2.13;;
43337;SDS011;28933;52.492;13.434;2023-02-18T04:45:50;9.27;;;2.33;;
43337;SDS011;28933;52.492;13.434;2023-02-18T04:48:35;6.82;;;2.30;;
43337;SDS011;28933;52.492;13.434;2023-02-18T04:51:21;6.75;;;2.33;;
43337;SDS011;28933;52.492;13.434;2023-02-18T04:54:07;9.10;;;2.80;;
43337;SDS011;28933;52.492;13.434;2023-02-18T04:56:53;10.45;;;1.90;;
43337;SDS011;28933;52.492;13.434;2023-02-18T04:59:39;8.98;;;2.70;;
43337;SDS011;28933;52.492;13.434;2023-02-18T05:02:25;6.55;;;2.20;;
43337;SDS011;28933;52.492;13.434;2023-02-18T05:05:11;6.00;;;2.03;;
43337;SDS011;28933;52.492;13.434;2023-02-18T05:07:58;8.60;;;2.58;;
43337;SDS011;28933;52.492;13.434;2023-02-18T05:10:44;7.90;;;2.20;;
43337;SDS011;28933;52.492;13.434;2023-02-18T05:13:30;6.18;;;1.73;;
43337;SDS011;28933;52.492;13.434;2023-02-18T05:16:15;6.07;;;2.10;;
43337;SDS011;28933;52.492;13.434;2023-02-18T05:19:01;5.32;;;2.10;;
43337;SDS011;28933;52.492;13.434;2023-02-18T05:21:47;7.75;;;2.15;;
43337;SDS011;28933;52.492;13.434;2023-02-18T05:24:33;7.15;;;2.40;;
43337;SDS011;28933;52.492;13.434;2023-02-18T05:27:19;8.27;;;2.22;;
43337;SDS011;28933;52.492;13.434;2023-02-18T05:30:05;5.88;;;2.60;;
43337;SDS011;28933;52.492;13.434;2023-02-18T05:32:52;7.03;;;3.00;;
43337;SDS011;28933;52.492;13.434;2023-02-18T05:35:38;5.85;;;2.25;;
43337;SDS011;28933;52.492;13.434;2023-02-18T05:38:24;7.82;;;2.00;;
43337;SDS011;28933;52.492;13.434;2023-02-18T05:41:10;6.68;;;2.42;;
43337;SDS011;28933;52.492;13.434;2023-02-18T05:43:56;7.57;;;1.92;;
43337;SDS011;28933;52.492;13.434;2023-02-18T05:47:05;5.82;;;2.20;;
43337;SDS011;28933;52.492;13.434;2023-02-18T05:49:52;6.22;;;2.03;;
43337;SDS011;28933;52.492;13.434;2023-02-18T05:52:40;8.32;;;2.80;;
43337;SDS011;28933;52.492;13.434;2023-02-18T05:55:26;7.40;;;2.45;;
43337;SDS011;28933;52.492;13.434;2023-02-18T05:58:12;4.43;;;1.98;;
43337;SDS011;28933;52.492;13.434;2023-02-18T06:00:57;6.70;;;2.20;;
43337;SDS011;28933;52.492;13.434;2023-02-18T06:03:44;7.47;;;2.53;;
43337;SDS011;28933;52.492;13.434;2023-02-18T06:06:29;4.47;;;2.13;;
43337;SDS011;28933;52.492;13.434;2023-02-18T06:09:15;5.07;;;2.35;;
43337;SDS011;28933;52.492;13.434;2023-02-18T06:12:02;6.25;;;2.47;;
43337;SDS011;28933;52.492;13.434;2023-02-18T06:14:48;7.80;;;2.35;;
43337;SDS011;28933;52.492;13.434;2023-02-18T06:17:34;7.05;;;2.08;;
43337;SDS011;28933;52.492;13.434;2023-02-18T06:20:19;6.05;;;2.15;;
43337;SDS011;28933;52.492;13.434;2023-02-18T06:23:05;5.25;;;1.92;;
43337;SDS011;28933;52.492;13.434;2023-02-18T06:25:51;6.20;;;2.13;;
43337;SDS011;28933;52.492;13.434;2023-02-18T06:28:37;6.32;;;2.42;;
43337;SDS011;28933;52.492;13.434;2023-02-18T06:31:23;8.27;;;2.08;;
43337;SDS011;28933;52.492;13.434;2023-02-18T06:34:09;6.78;;;1.75;;
43337;SDS011;28933;52.492;13.434;2023-02-18T06:36:55;4.28;;;1.92;;
43337;SDS011;28933;52.492;13.434;2023-02-18T06:39:41;6.18;;;2.03;;
43337;SDS011;28933;52.492;13.434;2023-02-18T06:42:27;6.00;;;2.00;;
43337;SDS011;28933;52.492;13.434;2023-02-18T06:45:13;5.20;;;1.65;;
43337;SDS011;28933;52.492;13.434;2023-02-18T06:47:59;6.47;;;1.80;;
43337;SDS011;28933;52.492;13.434;2023-02-18T06:50:45;6.45;;;2.55;;
43337;SDS011;28933;52.492;13.434;2023-02-18T06:53:31;6.20;;;1.85;;
43337;SDS011;28933;52.492;13.434;2023-02-18T06:56:17;4.35;;;1.83;;
43337;SDS011;28933;52.492;13.434;2023-02-18T06:59:03;4.80;;;2.10;;
43337;SDS011;28933;52.492;13.434;2023-02-18T07:01:49;5.35;;;1.67;;
43337;SDS011;28933;52.492;13.434;2023-02-18T07:04:34;2.95;;;1.50;;
43337;SDS011;28933;52.492;13.434;2023-02-18T07:07:20;8.30;;;2.22;;
43337;SDS011;28933;52.492;13.434;2023-02-18T07:10:06;10.13;;;2.45;;
43337;SDS011;28933;52.492;13.434;2023-02-18T07:12:53;4.47;;;1.73;;
43337;SDS011;28933;52.492;13.434;2023-02-18T07:15:39;6.90;;;1.90;;
43337;SDS011;28933;52.492;13.434;2023-02-18T07:18:25;5.35;;;1.98;;
43337;SDS011;28933;52.492;13.434;2023-02-18T07:21:11;4.72;;;1.40;;
43337;SDS011;28933;52.492;13.434;2023-02-18T07:23:56;3.65;;;1.67;;
43337;SDS011;28933;52.492;13.434;2023-02-18T07:26:42;5.05;;;1.67;;
43337;SDS011;28933;52.492;13.434;2023-02-18T07:29:28;3.65;;;1.65;;
43337;SDS011;28933;52.492;13.434;2023-02-18T07:32:15;4.30;;;1.60;;
43337;SDS011;28933;52.492;13.434;2023-02-18T07:35:04;10.80;;;1.67;;
43337;SDS011;28933;52.492;13.434;2023-02-18T07:37:50;5.68;;;1.65;;
43337;SDS011;28933;52.492;13.434;2023-02-18T07:40:36;3.92;;;1.67;;
43337;SDS011;28933;52.492;13.434;2023-02-18T07:43:22;4.63;;;2.00;;
43337;SDS011;28933;52.492;13.434;2023-02-18T07:46:09;3.65;;;2.13;;
43337;SDS011;28933;52.492;13.434;2023-02-18T07:49:04;7.47;;;1.52;;
43337;SDS011;28933;52.492;13.434;2023-02-18T07:51:50;4.60;;;1.40;;
43337;SDS011;28933;52.492;13.434;2023-02-18T07:54:36;4.25;;;1.80;;
43337;SDS011;28933;52.492;13.434;2023-02-18T07:57:22;4.60;;;1.63;;
43337;SDS011;28933;52.492;13.434;2023-02-18T08:00:08;2.45;;;1.50;;
43337;SDS011;28933;52.492;13.434;2023-02-18T08:02:54;4.25;;;1.55;;
43337;SDS011;28933;52.492;13.434;2023-02-18T08:05:40;4.45;;;1.40;;
43337;SDS011;28933;52.492;13.434;2023-02-18T08:08:27;3.92;;;1.90;;
43337;SDS011;28933;52.492;13.434;2023-02-18T08:11:14;3.78;;;1.42;;
43337;SDS011;28933;52.492;13.434;2023-02-18T08:14:00;3.55;;;1.65;;
43337;SDS011;28933;52.492;13.434;2023-02-18T08:16:45;3.45;;;1.42;;
43337;SDS011;28933;52.492;13.434;2023-02-18T08:19:31;9.52;;;2.30;;
43337;SDS011;28933;52.492;13.434;2023-02-18T08:22:17;4.78;;;2.17;;
43337;SDS011;28933;52.492;13.434;2023-02-18T08:25:03;4.55;;;1.67;;
43337;SDS011;28933;52.492;13.434;2023-02-18T08:27:50;5.65;;;1.80;;
43337;SDS011;28933;52.492;13.434;2023-02-18T08:30:36;2.67;;;1.63;;
43337;SDS011;28933;52.492;13.434;2023-02-18T08:33:22;2.75;;;1.40;;
43337;SDS011;28933;52.492;13.434;2023-02-18T08:36:08;4.45;;;1.60;;
43337;SDS011;28933;52.492;13.434;2023-02-18T08:38:55;7.45;;;2.25;;
43337;SDS011;28933;52.492;13.434;2023-02-18T08:41:41;5.32;;;1.75;;
43337;SDS011;28933;52.492;13.434;2023-02-18T08:44:27;5.30;;;1.35;;
43337;SDS011;28933;52.492;13.434;2023-02-18T08:47:13;6.10;;;1.88;;
43337;SDS011;28933;52.492;13.434;2023-02-18T08:49:59;5.25;;;2.13;;
43337;SDS011;28933;52.492;13.434;2023-02-18T08:52:45;5.43;;;2.45;;
43337;SDS011;28933;52.492;13.434;2023-02-18T08:55:32;4.15;;;1.58;;
43337;SDS011;28933;52.492;13.434;2023-02-18T08:58:18;4.70;;;1.83;;
43337;SDS011;28933;52.492;13.434;2023-02-18T09:01:05;5.53;;;2.05;;
43337;SDS011;28933;52.492;13.434;2023-02-18T09:03:52;3.83;;;1.95;;
43337;SDS011;28933;52.492;13.434;2023-02-18T09:06:38;3.40;;;1.42;;
43337;SDS011;28933;52.492;13.434;2023-02-18T09:09:24;4.90;;;1.83;;
43337;SDS011;28933;52.492;13.434;2023-02-18T09:12:10;5.10;;;2.42;;
43337;SDS011;28933;52.492;13.434;2023-02-18T09:14:56;4.50;;;1.80;;
43337;SDS011;28933;52.492;13.434;2023-02-18T09:17:42;5.93;;;2.22;;
43337;SDS011;28933;52.492;13.434;2023-02-18T09:20:28;9.60;;;1.90;;
43337;SDS011;28933;52.492;13.434;2023-02-18T09:23:14;6.53;;;1.75;;
43337;SDS011;28933;52.492;13.434;2023-02-18T09:26:02;4.05;;;2.20;;
43337;SDS011;28933;52.492;13.434;2023-02-18T09:28:51;11.50;;;2.70;;
43337;SDS011;28933;52.492;13.434;2023-02-18T09:31:38;7.55;;;2.97;;
43337;SDS011;28933;52.492;13.434;2023-02-18T09:34:28;6.45;;;2.92;;
43337;SDS011;28933;52.492;13.434;2023-02-18T09:37:14;6.72;;;2.53;;
43337;SDS011;28933;52.492;13.434;2023-02-18T09:40:00;7.43;;;3.45;;
43337;SDS011;28933;52.492;13.434;2023-02-18T09:42:46;9.00;;;3.22;;
43337;SDS011;28933;52.492;13.434;2023-02-18T09:45:32;6.38;;;2.88;;
43337;SDS011;28933;52.492;13.434;2023-02-18T09:48:19;8.48;;;2.67;;
43337;SDS011;28933;52.492;13.434;2023-02-18T09:51:12;11.63;;;3.50;;
43337;SDS011;28933;52.492;13.434;2023-02-18T09:54:00;4.57;;;2.30;;
43337;SDS011;28933;52.492;13.434;2023-02-18T09:56:46;7.97;;;3.65;;
43337;SDS011;28933;52.492;13.434;2023-02-18T09:59:33;6.68;;;2.70;;
43337;SDS011;28933;52.492;13.434;2023-02-18T10:02:19;6.18;;;2.97;;
43337;SDS011;28933;52.492;13.434;2023-02-18T10:05:05;10.88;;;3.70;;
43337;SDS011;28933;52.492;13.434;2023-02-18T10:07:53;8.93;;;3.08;;
43337;SDS011;28933;52.492;13.434;2023-02-18T10:10:43;6.03;;;2.30;;
43337;SDS011;28933;52.492;13.434;2023-02-18T10:13:31;5.20;;;2.30;;
43337;SDS011;28933;52.492;13.434;2023-02-18T10:16:18;9.15;;;2.80;;
43337;SDS011;28933;52.492;13.434;2023-02-18T10:22:25;6.97;;;2.72;;
43337;SDS011;28933;52.492;13.434;2023-02-18T10:25:16;7.10;;;3.05;;
43337;SDS011;28933;52.492;13.434;2023-02-18T10:28:04;8.40;;;2.95;;
43337;SDS011;28933;52.492;13.434;2023-02-18T10:30:53;6.00;;;2.47;;
43337;SDS011;28933;52.492;13.434;2023-02-18T10:33:54;5.93;;;2.78;;
43337;SDS011;28933;52.492;13.434;2023-02-18T10:36:54;5.78;;;2.70;;
43337;SDS011;28933;52.492;13.434;2023-02-18T10:42:46;9.32;;;3.72;;
43337;SDS011;28933;52.492;13.434;2023-02-18T10:45:44;7.93;;;3.72;;
43337;SDS011;28933;52.492;13.434;2023-02-18T10:48:42;6.57;;;4.03;;
43337;SDS011;28933;52.492;13.434;2023-02-18T10:51:55;6.43;;;3.05;;
43337;SDS011;28933;52.492;13.434;2023-02-18T10:57:45;8.23;;;3.90;;
43337;SDS011;28933;52.492;13.434;2023-02-18T11:00:35;8.65;;;3.95;;
43337;SDS011;28933;52.492;13.434;2023-02-18T11:03:41;8.48;;;3.28;;
43337;SDS011;28933;52.492;13.434;2023-02-18T11:06:30;5.30;;;2.70;;
43337;SDS011;28933;52.492;13.434;2023-02-18T11:12:29;6.93;;;2.90;;
43337;SDS011;28933;52.492;13.434;2023-02-18T11:15:28;4.43;;;2.33;;
43337;SDS011;28933;52.492;13.434;2023-02-18T11:21:28;4.55;;;2.15;;
43337;SDS011;28933;52.492;13.434;2023-02-18T11:24:14;5.70;;;2.72;;
43337;SDS011;28933;52.492;13.434;2023-02-18T11:27:02;6.32;;;2.58;;
43337;SDS011;28933;52.492;13.434;2023-02-18T11:29:55;5.93;;;2.90;;
43337;SDS011;28933;52.492;13.434;2023-02-18T11:32:47;4.45;;;2.40;;
43337;SDS011;28933;52.492;13.434;2023-02-18T11:35:35;4.47;;;2.67;;
43337;SDS011;28933;52.492;13.434;2023-02-18T11:41:12;5.15;;;2.42;;
43337;SDS011;28933;52.492;13.434;2023-02-18T11:44:02;4.53;;;2.15;;
43337;SDS011;28933;52.492;13.434;2023-02-18T11:46:55;5.20;;;2.15;;
43337;SDS011;28933;52.492;13.434;2023-02-18T11:49:42;4.63;;;2.30;;
43337;SDS011;28933;52.492;13.434;2023-02-18T11:52:44;3.95;;;1.92;;
43337;SDS011;28933;52.492;13.434;2023-02-18T11:55:31;3.80;;;2.17;;
43337;SDS011;28933;52.492;13.434;2023-02-18T11:58:17;7.03;;;3.20;;
43337;SDS011;28933;52.492;13.434;2023-02-18T12:01:03;4.40;;;3.00;;
43337;SDS011;28933;52.492;13.434;2023-02-18T12:03:59;4.72;;;2.50;;
43337;SDS011;28933;52.492;13.434;2023-02-18T12:07:22;5.25;;;2.47;;
43337;SDS011;28933;52.492;13.434;2023-02-18T12:10:20;3.67;;;2.15;;
43337;SDS011;28933;52.492;13.434;2023-02-18T12:13:25;4.65;;;2.53;;
43337;SDS011;28933;52.492;13.434;2023-02-18T12:16:35;8.85;;;3.45;;
43337;SDS011;28933;52.492;13.434;2023-02-18T12:19:36;5.57;;;3.45;;
43337;SDS011;28933;52.492;13.434;2023-02-18T12:22:42;4.63;;;2.97;;
43337;SDS011;28933;52.492;13.434;2023-02-18T12:34:51;6.03;;;3.75;;
43337;SDS011;28933;52.492;13.434;2023-02-18T13:05:37;6.43;;;3.42;;
43337;SDS011;28933;52.492;13.434;2023-02-18T13:14:12;5.57;;;3.22;;
43337;SDS011;28933;52.492;13.434;2023-02-18T13:16:43;6.00;;;4.32;;
43337;SDS011;28933;52.492;13.434;2023-02-18T13:21:45;6.93;;;4.18;;
43337;SDS011;28933;52.492;13.434;2023-02-18T13:24:20;7.95;;;4.70;;
43337;SDS011;28933;52.492;13.434;2023-02-18T13:26:55;4.75;;;3.53;;
43337;SDS011;28933;52.492;13.434;2023-02-18T13:29:28;4.70;;;2.90;;
43337;SDS011;28933;52.492;13.434;2023-02-18T13:34:46;4.70;;;2.70;;
43337;SDS011;28933;52.492;13.434;2023-02-18T13:40:03;4.45;;;2.97;;
43337;SDS011;28933;52.492;13.434;2023-02-18T13:42:41;5.38;;;3.22;;
43337;SDS011;28933;52.492;13.434;2023-02-18T13:47:56;5.45;;;3.60;;
43337;SDS011;28933;52.492;13.434;2023-02-18T13:53:11;3.63;;;1.92;;
43337;SDS011;28933;52.492;13.434;2023-02-18T13:58:02;4.65;;;2.78;;
43337;SDS011;28933;52.492;13.434;2023-02-18T14:00:35;3.63;;;2.25;;
43337;SDS011;28933;52.492;13.434;2023-02-18T14:03:19;3.15;;;2.10;;
43337;SDS011;28933;52.492;13.434;2023-02-18T14:05:55;3.08;;;2.55;;
43337;SDS011;28933;52.492;13.434;2023-02-18T14:08:34;4.35;;;2.35;;
43337;SDS011;28933;52.492;13.434;2023-02-18T14:13:53;2.92;;;2.00;;
43337;SDS011;28933;52.492;13.434;2023-02-18T14:19:38;2.72;;;1.95;;
43337;SDS011;28933;52.492;13.434;2023-02-18T14:25:02;3.30;;;2.35;;
43337;SDS011;28933;52.492;13.434;2023-02-18T14:27:38;3.38;;;1.95;;
43337;SDS011;28933;52.492;13.434;2023-02-18T14:30:05;3.47;;;2.10;;
43337;SDS011;28933;52.492;13.434;2023-02-18T14:32:40;2.97;;;1.63;;
43337;SDS011;28933;52.492;13.434;2023-02-18T14:35:22;3.00;;;2.00;;
43337;SDS011;28933;52.492;13.434;2023-02-18T14:40:48;3.53;;;2.03;;
43337;SDS011;28933;52.492;13.434;2023-02-18T14:43:29;2.30;;;1.75;;
43337;SDS011;28933;52.492;13.434;2023-02-18T14:46:00;2.92;;;1.85;;
43337;SDS011;28933;52.492;13.434;2023-02-18T14:48:44;2.20;;;1.60;;
43337;SDS011;28933;52.492;13.434;2023-02-18T14:51:24;2.58;;;1.35;;
43337;SDS011;28933;52.492;13.434;2023-02-18T14:53:53;1.88;;;1.30;;
43337;SDS011;28933;52.492;13.434;2023-02-18T14:56:19;3.15;;;1.10;;
43337;SDS011;28933;52.492;13.434;2023-02-18T14:58:59;1.70;;;1.33;;
43337;SDS011;28933;52.492;13.434;2023-02-18T15:01:30;1.30;;;1.10;;
43337;SDS011;28933;52.492;13.434;2023-02-18T15:03:57;2.15;;;1.52;;
43337;SDS011;28933;52.492;13.434;2023-02-18T15:06:29;2.38;;;1.45;;
43337;SDS011;28933;52.492;13.434;2023-02-18T15:09:00;1.60;;;1.23;;
43337;SDS011;28933;52.492;13.434;2023-02-18T15:11:41;2.50;;;1.65;;
43337;SDS011;28933;52.492;13.434;2023-02-18T15:14:16;2.97;;;1.80;;
43337;SDS011;28933;52.492;13.434;2023-02-18T15:16:49;2.00;;;1.48;;
43337;SDS011;28933;52.492;13.434;2023-02-18T15:19:16;3.17;;;1.50;;
43337;SDS011;28933;52.492;13.434;2023-02-18T15:21:45;1.77;;;1.23;;
43337;SDS011;28933;52.492;13.434;2023-02-18T15:24:16;2.20;;;1.42;;
43337;SDS011;28933;52.492;13.434;2023-02-18T15:26:56;2.38;;;1.80;;
43337;SDS011;28933;52.492;13.434;2023-02-18T15:29:27;1.95;;;1.30;;
43337;SDS011;28933;52.492;13.434;2023-02-18T15:31:55;2.00;;;1.33;;
43337;SDS011;28933;52.492;13.434;2023-02-18T15:36:53;1.17;;;1.05;;
43337;SDS011;28933;52.492;13.434;2023-02-18T15:39:23;1.52;;;1.02;;
43337;SDS011;28933;52.492;13.434;2023-02-18T15:41:52;1.42;;;0.93;;
43337;SDS011;28933;52.492;13.434;2023-02-18T15:44:22;1.40;;;1.10;;
43337;SDS011;28933;52.492;13.434;2023-02-18T15:46:51;1.00;;;0.88;;
43337;SDS011;28933;52.492;13.434;2023-02-18T15:49:19;2.70;;;1.27;;
43337;SDS011;28933;52.492;13.434;2023-02-18T15:51:47;1.05;;;0.90;;
43337;SDS011;28933;52.492;13.434;2023-02-18T15:54:17;2.83;;;0.95;;
43337;SDS011;28933;52.492;13.434;2023-02-18T15:56:48;0.88;;;0.80;;
43337;SDS011;28933;52.492;13.434;2023-02-18T16:01:46;1.75;;;1.05;;
43337;SDS011;28933;52.492;13.434;2023-02-18T16:04:14;1.25;;;0.93;;
43337;SDS011;28933;52.492;13.434;2023-02-18T16:06:44;1.90;;;1.23;;
43337;SDS011;28933;52.492;13.434;2023-02-18T16:09:13;1.27;;;1.00;;
43337;SDS011;28933;52.492;13.434;2023-02-18T16:11:45;1.77;;;1.17;;
43337;SDS011;28933;52.492;13.434;2023-02-18T16:16:57;0.95;;;0.73;;
43337;SDS011;28933;52.492;13.434;2023-02-18T16:24:59;1.67;;;1.02;;
43337;SDS011;28933;52.492;13.434;2023-02-18T16:27:32;3.03;;;1.10;;
43337;SDS011;28933;52.492;13.434;2023-02-18T16:30:17;2.05;;;1.35;;
43337;SDS011;28933;52.492;13.434;2023-02-18T16:32:47;1.52;;;0.90;;
43337;SDS011;28933;52.492;13.434;2023-02-18T16:35:13;0.85;;;0.80;;
43337;SDS011;28933;52.492;13.434;2023-02-18T16:37:40;3.75;;;0.93;;
43337;SDS011;28933;52.492;13.434;2023-02-18T16:42:45;2.38;;;1.23;;
43337;SDS011;28933;52.492;13.434;2023-02-18T16:45:14;1.70;;;1.05;;
43337;SDS011;28933;52.492;13.434;2023-02-18T16:47:40;1.95;;;1.30;;
43337;SDS011;28933;52.492;13.434;2023-02-18T16:50:13;1.88;;;1.23;;
43337;SDS011;28933;52.492;13.434;2023-02-18T16:52:42;2.08;;;1.10;;
43337;SDS011;28933;52.492;13.434;2023-02-18T16:55:14;4.07;;;1.92;;
43337;SDS011;28933;52.492;13.434;2023-02-18T16:57:40;3.78;;;2.65;;
43337;SDS011;28933;52.492;13.434;2023-02-18T17:00:06;3.75;;;2.40;;
43337;SDS011;28933;52.492;13.434;2023-02-18T17:02:32;4.10;;;2.13;;
43337;SDS011;28933;52.492;13.434;2023-02-18T17:04:59;3.35;;;2.00;;
43337;SDS011;28933;52.492;13.434;2023-02-18T17:07:25;4.95;;;2.72;;
43337;SDS011;28933;52.492;13.434;2023-02-18T17:09:50;4.18;;;3.03;;
43337;SDS011;28933;52.492;13.434;2023-02-18T17:12:16;4.22;;;2.60;;
43337;SDS011;28933;52.492;13.434;2023-02-18T17:14:42;5.75;;;3.05;;
43337;SDS011;28933;52.492;13.434;2023-02-18T17:17:10;5.78;;;3.25;;
43337;SDS011;28933;52.492;13.434;2023-02-18T17:19:37;4.65;;;3.20;;
43337;SDS011;28933;52.492;13.434;2023-02-18T17:22:03;4.32;;;2.65;;
43337;SDS011;28933;52.492;13.434;2023-02-18T17:24:29;4.97;;;2.47;;
43337;SDS011;28933;52.492;13.434;2023-02-18T17:26:55;4.22;;;2.50;;
43337;SDS011;28933;52.492;13.434;2023-02-18T17:29:21;4.50;;;2.60;;
43337;SDS011;28933;52.492;13.434;2023-02-18T17:31:46;8.02;;;4.60;;
43337;SDS011;28933;52.492;13.434;2023-02-18T17:34:26;7.50;;;4.32;;
43337;SDS011;28933;52.492;13.434;2023-02-18T17:36:54;6.47;;;3.80;;
43337;SDS011;28933;52.492;13.434;2023-02-18T17:39:20;7.78;;;4.35;;
43337;SDS011;28933;52.492;13.434;2023-02-18T17:41:47;5.78;;;3.47;;
43337;SDS011;28933;52.492;13.434;2023-02-18T17:44:16;4.68;;;2.58;;
43337;SDS011;28933;52.492;13.434;2023-02-18T17:46:43;4.38;;;2.17;;
43337;SDS011;28933;52.492;13.434;2023-02-18T17:49:10;7.47;;;2.90;;
43337;SDS011;28933;52.492;13.434;2023-02-18T17:51:36;4.90;;;2.70;;
43337;SDS011;28933;52.492;13.434;2023-02-18T17:54:08;3.60;;;2.30;;
43337;SDS011;28933;52.492;13.434;2023-02-18T17:56:39;3.20;;;2.25;;
43337;SDS011;28933;52.492;13.434;2023-02-18T17:59:05;3.42;;;2.17;;
43337;SDS011;28933;52.492;13.434;2023-02-18T18:01:31;3.03;;;2.00;;
43337;SDS011;28933;52.492;13.434;2023-02-18T18:03:56;4.38;;;2.17;;
43337;SDS011;28933;52.492;13.434;2023-02-18T18:06:22;4.05;;;2.13;;
43337;SDS011;28933;52.492;13.434;2023-02-18T18:08:47;3.50;;;1.67;;
43337;SDS011;28933;52.492;13.434;2023-02-18T18:11:21;3.10;;;1.75;;
43337;SDS011;28933;52.492;13.434;2023-02-18T18:13:48;3.45;;;2.22;;
43337;SDS011;28933;52.492;13.434;2023-02-18T18:16:15;4.85;;;2.83;;
43337;SDS011;28933;52.492;13.434;2023-02-18T18:18:42;3.38;;;2.10;;
43337;SDS011;28933;52.492;13.434;2023-02-18T18:21:13;2.80;;;1.88;;
43337;SDS011;28933;52.492;13.434;2023-02-18T18:23:44;3.42;;;2.38;;
43337;SDS011;28933;52.492;13.434;2023-02-18T18:26:10;3.72;;;2.35;;
43337;SDS011;28933;52.492;13.434;2023-02-18T18:28:36;3.83;;;2.10;;
43337;SDS011;28933;52.492;13.434;2023-02-18T18:31:01;4.68;;;2.53;;